Terminal Aerodrome Forecast
Issued by NWS

Home | Current Version | Previous Version | Text Only | Print | Product List | Glossary Off
Versions: 1 2 3 4 5 6 7 8 9 10 11 12 13 14 15 16 17 18 19 20 21 22 23 24 25 26 27 28 29 30

515
FTUS43 KABR 261236 AAA
TAFPIR
TAF AMD
KPIR 261236Z 2613/2712 34014KT P6SM OVC020
      TEMPO 2613/2614 OVC015
     FM261600 33016G24KT P6SM OVC025
     FM262000 34014G21KT P6SM BKN035
     FM262200 34013KT P6SM SCT070
     FM270200 02009KT P6SM FEW120
     FM270600 06005KT P6SM SCT080=

USA.gov is the U.S. government's official web portal to all federal, state and local government web resources and services.